Box Elder, South Dakota
Current Conditions -  °F | °C
As of 12:58 AM on Saturday 25 Oct 2014 (Local Time) from KRCA Reporting Station
Clear Clear  
Wind Chill: 37°   Ceiling: Unl
Heat Index: 42°   Visibility: 7mi
Dew Point: 33°   Wind: 7mph
Humidity: 71%   Direction: 300°WNW
Pressure: 30.15"   Gusts: NA
Location:  44.11°N, 103.07°W
Report Text: KRCA 250658Z AUTO 30006KT 7SM CLR 05/01 A3015 RMK AO2 SLP209 T00540006 402120054 $
Loading
Personal Weather Stations






























Interactive Weather Map
Tropical Storm Tracking
New forecast layout! Learn more

10-Day Weather Forecast

Advertisements
Track Severe Weather on mobile